Time;durP1;ratioP1;P1;durP2;ratioP2;P2;SDS_P1;SDS_P2;PMS_P1;PMS_P2;Temp;Humidity;BMP_temperature;BMP_pressure;BME280_temperature;BME280_humidity;BME280_pressure;Samples;Min_cycle;Max_cycle;Signal;HPM_P1;HPM_P2
2021/05/11 00:01:58;;;;;;;0.90;0.70;;;22.50;49.30;;;;;;5034431;28;20414;-81
2021/05/11 00:04:24;;;;;;;0.93;0.73;;;22.40;49.20;;;;;;5053651;28;20193;-81
2021/05/11 00:06:49;;;;;;;1.10;0.90;;;22.40;49.20;;;;;;5035437;28;20176;-81
2021/05/11 00:09:17;;;;;;;1.10;0.80;;;22.40;49.20;;;;;;5053559;28;20418;-80
2021/05/11 00:11:43;;;;;;;1.13;0.60;;;22.40;49.20;;;;;;5036995;28;20179;-80
2021/05/11 00:14:09;;;;;;;1.10;0.80;;;22.50;49.30;;;;;;5054188;28;20440;-81
2021/05/11 00:16:35;;;;;;;1.10;0.60;;;22.50;49.30;;;;;;5053547;28;20199;-81
2021/05/11 00:19:05;;;;;;;1.20;1.00;;;22.50;49.20;;;;;;5053744;28;20231;-81
2021/05/11 00:21:32;;;;;;;1.63;0.70;;;22.50;49.30;;;;;;5053603;28;20411;-81
2021/05/11 00:23:57;;;;;;;1.00;0.70;;;22.50;49.80;;;;;;5053316;28;20426;-81
2021/05/11 00:26:23;;;;;;;1.00;0.90;;;22.50;49.80;;;;;;5053706;28;20775;-81
2021/05/11 00:28:49;;;;;;;0.93;0.70;;;22.50;49.20;;;;;;5053640;28;20162;-81
2021/05/11 00:31:15;;;;;;;0.80;0.60;;;22.50;49.30;;;;;;5054370;28;20175;-81
2021/05/11 00:33:41;;;;;;;1.10;0.80;;;22.50;49.20;;;;;;5053532;28;20178;-81
2021/05/11 00:36:07;;;;;;;1.00;0.80;;;22.50;49.80;;;;;;5035496;28;20466;-81
2021/05/11 00:38:33;;;;;;;1.00;0.70;;;22.50;49.20;;;;;;5053654;28;20172;-80
2021/05/11 00:40:58;;;;;;;1.00;0.80;;;22.40;49.20;;;;;;5053976;28;20172;-80
2021/05/11 00:43:24;;;;;;;1.00;0.77;;;22.40;49.10;;;;;;5053807;28;20453;-80
2021/05/11 00:45:50;;;;;;;0.90;0.60;;;22.50;49.20;;;;;;5054971;28;20170;-81
2021/05/11 00:48:16;;;;;;;1.10;0.80;;;22.50;49.20;;;;;;5035304;28;20414;-80
2021/05/11 00:50:42;;;;;;;1.03;0.70;;;22.50;49.20;;;;;;5036502;28;20176;-80
2021/05/11 00:53:25;;;;;;;1.00;0.60;;;22.50;49.30;;;;;;5035198;28;20183;-81
2021/05/11 00:55:51;;;;;;;1.53;0.77;;;22.50;49.20;;;;;;5052756;28;20232;-80
2021/05/11 00:58:22;;;;;;;1.20;0.77;;;22.50;49.30;;;;;;5052413;28;20410;-81
2021/05/11 01:00:48;;;;;;;0.90;0.70;;;22.40;49.20;;;;;;5049242;28;20152;-81
2021/05/11 01:03:13;;;;;;;0.90;0.70;;;22.40;49.20;;;;;;5047190;28;20521;-81
2021/05/11 01:05:39;;;;;;;1.00;0.70;;;22.40;49.20;;;;;;5047969;28;20235;-80
2021/05/11 01:08:06;;;;;;;0.80;0.60;;;22.40;49.20;;;;;;5048176;28;20171;-80
2021/05/11 01:10:32;;;;;;;0.90;0.70;;;22.50;49.30;;;;;;5048394;28;20200;-80
2021/05/11 01:12:57;;;;;;;0.93;0.77;;;22.50;49.30;;;;;;5047292;28;20387;-82
2021/05/11 01:18:48;;;;;;;1.00;0.70;;;22.50;49.30;;;;;;5048837;28;20186;-81
2021/05/11 01:21:28;;;;;;;1.00;0.70;;;22.40;49.30;;;;;;5048769;28;20429;-81
2021/05/11 01:24:17;;;;;;;1.50;0.97;;;22.40;49.30;;;;;;5048671;28;20440;-81
2021/05/11 01:49:13;;;;;;;0.90;0.70;;;22.30;49.40;;;;;;5049090;28;20397;-81
2021/05/11 02:24:14;;;;;;;1.10;0.70;;;22.30;49.40;;;;;;5047802;28;20434;-80
2021/05/11 02:26:39;;;;;;;1.00;0.70;;;22.30;49.40;;;;;;5047686;28;20422;-80
2021/05/11 02:29:05;;;;;;;0.93;0.67;;;22.30;49.50;;;;;;5049776;28;20180;-80
2021/05/11 02:31:30;;;;;;;1.00;0.70;;;22.30;49.40;;;;;;5052097;28;20196;-80
2021/05/11 02:33:56;;;;;;;1.10;0.80;;;22.30;49.40;;;;;;5049570;28;20175;-81
2021/05/11 02:37:09;;;;;;;1.17;0.70;;;22.30;50.00;;;;;;5049032;28;20207;-80
2021/05/11 02:39:34;;;;;;;0.87;0.60;;;22.30;49.40;;;;;;5031694;28;20174;-81
2021/05/11 02:42:05;;;;;;;1.10;0.90;;;22.30;49.50;;;;;;5030502;28;20472;-81
2021/05/11 02:44:38;;;;;;;1.00;0.60;;;22.30;49.50;;;;;;5048740;28;20176;-81
2021/05/11 02:47:14;;;;;;;1.10;0.73;;;22.30;49.50;;;;;;5048330;28;20386;-81
2021/05/11 02:49:43;;;;;;;1.30;0.70;;;22.30;49.50;;;;;;5048463;28;20430;-81
2021/05/11 02:52:09;;;;;;;1.00;0.80;;;22.30;49.50;;;;;;5029997;28;20175;-81
2021/05/11 02:54:35;;;;;;;1.10;0.70;;;22.30;49.50;;;;;;5047361;28;20449;-81
2021/05/11 02:57:01;;;;;;;0.90;0.73;;;22.30;49.50;;;;;;5030527;28;20213;-80
2021/05/11 02:59:27;;;;;;;0.80;0.70;;;22.30;49.50;;;;;;5047834;28;20418;-80
2021/05/11 03:01:54;;;;;;;0.90;0.70;;;22.30;49.50;;;;;;5030236;28;20229;-80
2021/05/11 03:04:20;;;;;;;1.10;0.77;;;22.30;49.50;;;;;;5048196;28;20223;-81
2021/05/11 03:06:46;;;;;;;1.43;0.80;;;22.30;49.50;;;;;;5047464;28;20417;-81
2021/05/11 03:09:12;;;;;;;1.00;0.70;;;22.30;49.50;;;;;;5048062;28;20198;-81
2021/05/11 03:11:38;;;;;;;1.67;0.70;;;22.30;49.50;;;;;;5048309;28;20167;-81
2021/05/11 03:17:26;;;;;;;0.80;0.70;;;22.30;49.50;;;;;;5047890;28;20210;-81
2021/05/11 03:19:52;;;;;;;0.90;0.80;;;22.30;49.60;;;;;;5047222;28;20549;-81
2021/05/11 03:22:18;;;;;;;1.10;0.70;;;22.30;49.50;;;;;;5047636;28;20410;-81
2021/05/11 03:24:45;;;;;;;1.10;0.70;;;22.30;49.50;;;;;;5030352;28;20276;-81
2021/05/11 03:27:12;;;;;;;1.00;0.67;;;22.30;49.50;;;;;;5047720;28;20918;-81
2021/05/11 03:29:38;;;;;;;1.20;0.90;;;22.30;49.50;;;;;;5030205;28;20418;-81
2021/05/11 03:32:04;;;;;;;0.80;0.70;;;22.30;49.50;;;;;;5048433;28;20481;-81
2021/05/11 03:34:30;;;;;;;1.43;0.70;;;22.30;49.50;;;;;;5030105;28;20426;-81
2021/05/11 03:36:56;;;;;;;1.20;0.70;;;22.30;49.50;;;;;;5032148;28;20553;-81
2021/05/11 03:39:21;;;;;;;0.87;0.60;;;22.30;49.50;;;;;;5034015;28;20240;-81
2021/05/11 03:41:53;;;;;;;1.17;0.80;;;22.30;49.50;;;;;;5035676;28;20187;-81
2021/05/11 03:44:23;;;;;;;1.13;0.70;;;22.30;49.50;;;;;;5031902;28;20160;-81
2021/05/11 03:46:48;;;;;;;0.90;0.70;;;22.20;49.50;;;;;;5031696;28;20426;-80
2021/05/11 03:49:14;;;;;;;1.00;0.63;;;22.30;49.50;;;;;;5031598;28;20391;-80
2021/05/11 03:51:40;;;;;;;1.20;0.70;;;22.30;49.50;;;;;;5013361;28;20196;-80
2021/05/11 03:54:07;;;;;;;0.90;0.60;;;22.30;49.50;;;;;;5013861;28;20615;-80
2021/05/11 03:56:33;;;;;;;1.10;0.77;;;22.30;49.50;;;;;;5051697;28;20438;-80
2021/05/11 03:58:59;;;;;;;0.90;0.70;;;22.30;49.50;;;;;;5033815;28;20457;-80
2021/05/11 04:01:25;;;;;;;1.10;0.90;;;22.30;49.50;;;;;;5033122;28;20247;-80
2021/05/11 04:03:50;;;;;;;0.90;0.70;;;22.30;49.50;;;;;;5051573;28;20425;-81
2021/05/11 04:06:16;;;;;;;0.90;0.63;;;22.30;49.50;;;;;;5033815;28;20172;-81
2021/05/11 04:16:39;;;;;;;1.00;0.70;;;22.20;49.50;;;;;;5050244;28;20438;-82
2021/05/11 04:19:04;;;;;;;0.90;0.60;;;22.30;49.50;;;;;;5049860;28;20880;-83
2021/05/11 04:21:30;;;;;;;0.90;0.63;;;22.30;49.50;;;;;;5033058;28;20425;-83
2021/05/11 04:23:56;;;;;;;0.87;0.60;;;22.30;49.50;;;;;;5052826;28;20191;-84
2021/05/11 04:26:23;;;;;;;1.10;0.80;;;22.30;49.50;;;;;;5033284;28;20430;-83
2021/05/11 04:28:50;;;;;;;1.00;0.63;;;22.30;49.40;;;;;;5035109;28;20422;-84
2021/05/11 04:31:18;;;;;;;0.80;0.60;;;22.30;49.40;;;;;;5052510;28;20509;-85
2021/05/11 04:33:44;;;;;;;1.67;0.67;;;22.30;49.40;;;;;;5033193;28;20932;-83
2021/05/11 04:36:10;;;;;;;1.10;0.70;;;22.40;49.50;;;;;;5035282;28;20462;-83
2021/05/11 04:38:37;;;;;;;1.77;1.00;;;22.40;49.60;;;;;;5032983;28;20450;-83
2021/05/11 04:41:04;;;;;;;1.00;0.80;;;22.40;49.60;;;;;;5049801;28;20415;-84
2021/05/11 04:43:31;;;;;;;1.67;0.70;;;22.40;49.60;;;;;;5031954;28;20430;-83
2021/05/11 04:46:44;;;;;;;0.90;0.70;;;22.40;49.60;;;;;;5049969;28;20412;-84
2021/05/11 04:48:50;;;;;;;1.00;0.60;;;22.50;49.70;;;;;;5041551;28;20419;-83
2021/05/11 04:51:20;;;;;;;0.80;0.60;;;22.40;49.60;;;;;;5031224;28;20421;-82
2021/05/11 04:53:49;;;;;;;1.00;0.73;;;22.50;49.60;;;;;;5048616;28;20445;-83
2021/05/11 04:56:15;;;;;;;0.93;0.73;;;22.50;49.60;;;;;;5030268;28;20477;-83
2021/05/11 04:58:41;;;;;;;0.80;0.70;;;22.50;49.60;;;;;;5030080;28;20422;-82
2021/05/11 05:01:07;;;;;;;0.80;0.67;;;22.50;49.50;;;;;;5029653;28;20418;-83
2021/05/11 05:06:55;;;;;;;2.33;0.80;;;22.60;49.50;;;;;;5045809;28;20155;-84
2021/05/11 05:09:28;;;;;;;1.67;0.60;;;22.60;49.50;;;;;;5027357;28;20463;-85
2021/05/11 05:11:53;;;;;;;1.10;0.90;;;22.60;49.60;;;;;;5027911;28;20539;-86
2021/05/11 05:14:20;;;;;;;0.90;0.70;;;22.60;49.50;;;;;;5044415;28;20403;-86
2021/05/11 05:16:48;;;;;;;0.93;0.67;;;22.60;49.50;;;;;;5025072;28;20200;-84
2021/05/11 05:19:14;;;;;;;1.37;0.77;;;22.60;49.40;;;;;;5025807;28;20453;-85
2021/05/11 05:21:41;;;;;;;1.20;0.60;;;22.60;50.00;;;;;;5025998;28;20421;-85
2021/05/11 05:24:12;;;;;;;0.90;0.77;;;22.60;49.40;;;;;;5010278;28;20422;-86
2021/05/11 05:26:39;;;;;;;1.60;1.20;;;22.70;49.50;;;;;;5025806;28;20442;-85
2021/05/11 05:32:05;;;;;;;1.00;0.70;;;22.70;49.40;;;;;;5043910;28;20393;-86
2021/05/11 05:34:31;;;;;;;1.20;0.70;;;22.70;49.50;;;;;;5010098;28;20416;-85
2021/05/11 05:36:58;;;;;;;1.10;0.67;;;22.60;49.40;;;;;;5029517;28;20460;-84
2021/05/11 05:39:29;;;;;;;0.90;0.60;;;22.70;49.50;;;;;;5029745;28;20426;-85
2021/05/11 05:42:09;;;;;;;0.90;0.70;;;22.70;49.50;;;;;;5029317;28;20471;-85
2021/05/11 05:44:35;;;;;;;0.97;0.80;;;22.70;49.50;;;;;;5013153;28;20445;-83
2021/05/11 05:47:02;;;;;;;1.20;0.90;;;22.70;49.50;;;;;;5021621;28;20830;-83
2021/05/11 05:49:33;;;;;;;1.03;0.70;;;22.70;49.50;;;;;;5047970;28;20622;-84
2021/05/11 05:52:04;;;;;;;2.20;0.70;;;22.70;49.40;;;;;;5025961;28;20423;-85
2021/05/11 05:54:30;;;;;;;0.90;0.70;;;22.70;49.40;;;;;;5023934;28;20452;-85
2021/05/11 06:00:18;;;;;;;2.40;0.77;;;22.80;49.40;;;;;;5029578;28;20517;-83
2021/05/11 06:02:46;;;;;;;1.00;0.90;;;22.70;49.30;;;;;;5013725;28;20420;-83
2021/05/11 06:05:13;;;;;;;1.00;0.70;;;22.80;49.40;;;;;;5030556;28;20416;-83
2021/05/11 06:07:43;;;;;;;1.30;0.83;;;22.80;49.40;;;;;;5028062;28;20414;-83
2021/05/11 06:10:11;;;;;;;0.90;0.70;;;22.80;49.40;;;;;;5047380;28;20447;-83
2021/05/11 06:17:40;;;;;;;0.80;0.70;;;22.80;49.40;;;;;;5047887;28;20525;-83
2021/05/11 06:20:06;;;;;;;0.90;0.80;;;22.80;49.40;;;;;;5046397;28;20425;-84
2021/05/11 06:22:32;;;;;;;1.00;0.70;;;22.80;49.30;;;;;;5047288;28;20405;-83
2021/05/11 06:25:02;;;;;;;0.90;0.60;;;22.80;49.30;;;;;;5031456;28;20494;-84
2021/05/11 06:27:29;;;;;;;1.60;0.80;;;22.80;49.30;;;;;;5032111;28;20422;-85
2021/05/11 06:29:57;;;;;;;1.40;0.80;;;22.80;49.30;;;;;;5049457;28;20441;-84
2021/05/11 06:32:24;;;;;;;0.90;0.70;;;22.80;49.30;;;;;;5048254;28;20438;-84
2021/05/11 06:35:03;;;;;;;1.80;0.70;;;22.80;49.30;;;;;;5030988;28;20434;-84
2021/05/11 06:37:29;;;;;;;1.10;0.80;;;22.80;49.40;;;;;;5031849;28;20453;-85
2021/05/11 06:40:05;;;;;;;1.10;0.80;;;22.80;49.40;;;;;;5031417;28;20474;-85
2021/05/11 06:42:31;;;;;;;0.90;0.70;;;22.80;49.30;;;;;;5031551;28;20191;-85
2021/05/11 06:54:09;;;;;;;0.80;0.60;;;22.80;49.40;;;;;;4952989;29;20431;-83
2021/05/11 06:56:44;;;;;;;;;;;;;;;;;;;;;
2021/05/11 06:59:26;;;;;;;0.90;0.70;;;22.80;49.40;;;;;;4914418;29;20444;-83
2021/05/11 07:01:52;;;;;;;1.00;0.70;;;22.80;49.50;;;;;;4915531;29;20428;-83
2021/05/11 07:04:19;;;;;;;1.10;0.70;;;22.80;49.40;;;;;;4900988;29;20421;-84
2021/05/11 07:06:44;;;;;;;0.80;0.60;;;22.80;49.40;;;;;;4899506;29;20528;-83
2021/05/11 07:09:16;;;;;;;0.80;0.60;;;22.80;49.50;;;;;;4915339;29;20808;-83
2021/05/11 07:14:21;;;;;;;1.07;0.70;;;22.80;49.40;;;;;;4919015;29;20412;-83
2021/05/11 07:16:55;;;;;;;1.23;0.80;;;22.80;49.40;;;;;;4903094;29;20464;-82
2021/05/11 07:19:31;;;;;;;;;;;;;;;;;;;;;
2021/05/11 07:22:07;;;;;;;;;;;;;;;;;;;;;
2021/05/11 07:24:33;;;;;;;1.00;0.70;;;22.80;49.40;;;;;;4920824;29;20416;-82
2021/05/11 07:27:49;;;;;;;1.10;0.80;;;22.80;50.00;;;;;;4920484;29;20428;-82
2021/05/11 07:30:08;;;;;;;0.90;0.70;;;22.80;49.40;;;;;;4908096;28;20441;-83
2021/05/11 07:32:34;;;;;;;0.90;0.70;;;22.80;49.50;;;;;;4991333;28;20451;-83
2021/05/11 07:35:04;;;;;;;1.00;0.70;;;22.80;49.50;;;;;;4974550;28;20435;-84
2021/05/11 07:37:34;;;;;;;1.87;0.90;;;22.80;49.50;;;;;;5028838;28;20454;-85
2021/05/11 07:40:03;;;;;;;1.03;0.80;;;22.80;49.50;;;;;;5030538;28;20951;-84
2021/05/11 07:42:31;;;;;;;1.10;0.80;;;22.80;49.50;;;;;;5048047;28;20413;-84
2021/05/11 07:45:01;;;;;;;0.90;0.80;;;22.80;49.50;;;;;;5030670;28;20422;-84
2021/05/11 08:17:56;;;;;;;1.00;0.60;;;22.80;49.60;;;;;;5009366;28;20589;-83
2021/05/11 08:28:37;;;;;;;1.00;0.70;;;22.80;49.70;;;;;;5013762;28;20545;-83
2021/05/11 08:31:03;;;;;;;0.90;0.60;;;22.80;49.70;;;;;;5032846;28;20942;-83
2021/05/11 08:33:29;;;;;;;0.90;0.70;;;22.80;49.70;;;;;;5050782;28;20450;-83
2021/05/11 08:35:55;;;;;;;0.90;0.70;;;22.80;49.70;;;;;;5032751;28;20414;-83
2021/05/11 08:41:43;;;;;;;1.20;0.70;;;22.80;49.70;;;;;;5046122;28;20190;-84
2021/05/11 08:44:16;;;;;;;0.80;0.57;;;22.80;49.70;;;;;;5027601;28;20485;-85
2021/05/11 08:46:44;;;;;;;1.20;0.77;;;22.80;49.70;;;;;;5046245;28;20164;-84
2021/05/11 08:49:15;;;;;;;0.80;0.60;;;22.80;49.70;;;;;;5028746;28;20419;-84
2021/05/11 09:54:51;;;;;;;1.20;0.80;;;22.80;49.80;;;;;;5047346;28;20418;-85
2021/05/11 09:57:43;;;;;;;0.97;0.80;;;22.80;49.80;;;;;;5029684;28;20477;-84
2021/05/11 10:40:54;;;;;;;0.90;0.70;;;22.80;49.90;;;;;;4850925;29;20440;-85
2021/05/11 10:49:30;;;;;;;1.43;0.87;;;22.80;49.90;;;;;;4850853;29;20480;-84
2021/05/11 10:52:26;;;;;;;1.10;0.80;;;22.80;49.80;;;;;;4839209;29;20457;-83
2021/05/11 10:55:04;;;;;;;1.60;0.80;;;22.80;49.90;;;;;;4890824;29;20419;-83
2021/05/11 10:57:44;;;;;;;1.07;0.80;;;22.80;49.90;;;;;;4898519;29;20483;-84
2021/05/11 11:03:13;;;;;;;0.90;0.73;;;22.80;50.00;;;;;;4947999;29;20438;-83
2021/05/11 11:05:44;;;;;;;1.00;0.80;;;22.80;50.00;;;;;;4947775;29;20426;-83
2021/05/11 11:08:40;;;;;;;2.60;0.90;;;22.80;49.90;;;;;;4949181;29;20924;-83
2021/05/11 11:11:20;;;;;;;0.90;0.70;;;22.80;49.90;;;;;;4948867;29;20482;-84
2021/05/11 11:13:53;;;;;;;0.90;0.70;;;22.80;49.90;;;;;;4977738;28;20437;-83
2021/05/11 11:16:20;;;;;;;1.20;0.90;;;22.80;50.00;;;;;;5029632;28;20454;-84
2021/05/11 11:18:47;;;;;;;1.40;0.87;;;22.80;50.00;;;;;;5020215;28;20434;-83
2021/05/11 11:23:58;;;;;;;1.50;1.07;;;22.80;50.00;;;;;;5044778;28;20446;-83
2021/05/11 11:26:43;;;;;;;2.80;1.87;;;22.80;50.00;;;;;;5028055;28;20442;-83
2021/05/11 11:29:12;;;;;;;5.50;3.40;;;22.80;50.00;;;;;;5040632;28;20406;-83
2021/05/11 11:31:44;;;;;;;7.53;5.10;;;22.80;50.00;;;;;;5029783;28;20410;-83
2021/05/11 11:34:35;;;;;;;15.30;9.47;;;22.80;50.00;;;;;;5030506;28;20418;-83
2021/05/11 11:37:14;;;;;;;16.40;10.20;;;22.80;50.00;;;;;;5009812;28;20902;-83
2021/05/11 11:39:51;;;;;;;32.10;16.00;;;22.80;50.00;;;;;;5027607;28;20388;-83
2021/05/11 11:42:40;;;;;;;36.10;18.97;;;22.80;50.10;;;;;;5010982;28;20441;-83
2021/05/11 11:45:21;;;;;;;32.97;18.27;;;22.80;50.20;;;;;;5027739;28;20896;-82
2021/05/11 11:47:59;;;;;;;28.10;18.80;;;22.80;50.20;;;;;;5027133;28;20410;-83
2021/05/11 11:50:30;;;;;;;27.33;19.30;;;22.80;50.20;;;;;;5010402;28;21047;-83
2021/05/11 11:55:59;;;;;;;30.23;18.47;;;22.80;50.20;;;;;;5027177;28;20411;-84
2021/05/11 11:58:27;;;;;;;24.80;16.40;;;22.80;50.20;;;;;;5016402;28;20202;-83
2021/05/11 12:00:53;;;;;;;21.20;16.07;;;22.80;50.20;;;;;;5033779;28;20403;-83
2021/05/11 12:03:22;;;;;;;32.33;15.67;;;22.80;50.20;;;;;;5014197;28;20434;-83
2021/05/11 12:05:58;;;;;;;24.97;14.73;;;22.80;50.20;;;;;;5013523;28;20208;-83
2021/05/11 12:08:31;;;;;;;24.60;14.97;;;22.80;50.20;;;;;;5013625;28;20403;-83
2021/05/11 12:11:01;;;;;;;22.43;14.07;;;22.80;50.20;;;;;;5013550;28;20833;-84
2021/05/11 12:13:36;;;;;;;20.50;13.80;;;22.80;50.20;;;;;;5014063;28;20411;-83
2021/05/11 12:16:15;;;;;;;16.73;12.63;;;22.90;50.30;;;;;;5031078;28;20383;-83
2021/05/11 12:19:19;;;;;;;18.17;12.80;;;22.90;50.30;;;;;;5031062;28;20414;-83
2021/05/11 12:22:06;;;;;;;21.30;12.60;;;22.90;50.40;;;;;;5017077;28;20434;-83
2021/05/11 12:24:41;;;;;;;19.63;11.47;;;22.90;50.30;;;;;;4997555;28;20424;-83
2021/05/11 12:27:22;;;;;;;16.80;10.80;;;22.80;50.20;;;;;;4998308;28;20422;-83
2021/05/11 12:30:06;;;;;;;18.73;10.90;;;22.80;50.30;;;;;;5016693;28;20430;-82
2021/05/11 12:32:34;;;;;;;14.57;10.70;;;22.80;50.30;;;;;;5031661;28;20496;-82
2021/05/11 12:35:14;;;;;;;15.47;10.10;;;22.80;50.20;;;;;;5014476;28;20423;-82
2021/05/11 12:37:49;;;;;;;15.40;10.60;;;22.80;50.30;;;;;;5013793;28;20449;-82
2021/05/11 12:40:29;;;;;;;21.37;10.27;;;22.80;50.30;;;;;;5031440;28;20403;-82
2021/05/11 12:42:58;;;;;;;12.87;8.83;;;22.80;50.30;;;;;;5014210;28;20446;-82
2021/05/11 12:45:35;;;;;;;15.03;9.03;;;22.80;50.30;;;;;;5013446;28;20426;-82
2021/05/11 12:48:03;;;;;;;15.00;8.17;;;22.80;50.30;;;;;;5014599;28;20414;-82
2021/05/11 12:50:33;;;;;;;12.57;7.77;;;22.80;50.30;;;;;;5014393;28;20906;-83
2021/05/11 12:53:24;;;;;;;8.50;7.37;;;22.80;50.40;;;;;;5031918;28;20438;-83
2021/05/11 12:56:09;;;;;;;13.37;7.33;;;22.80;50.30;;;;;;5014029;28;20412;-82
2021/05/11 13:01:24;;;;;;;16.50;7.60;;;22.80;50.40;;;;;;5030734;28;20403;-81
2021/05/11 13:25:54;;;;;;;7.20;5.40;;;22.80;50.60;;;;;;5050528;28;20433;-83
2021/05/11 13:28:32;;;;;;;8.70;4.97;;;22.80;50.60;;;;;;5034309;28;20431;-84
2021/05/11 13:33:33;;;;;;;9.77;4.63;;;22.80;50.70;;;;;;5028684;28;20479;-84
2021/05/11 13:36:01;;;;;;;5.57;4.60;;;22.80;50.80;;;;;;5008370;28;20585;-84
2021/05/11 13:38:27;;;;;;;7.13;4.50;;;22.80;50.80;;;;;;5010019;28;20430;-84
2021/05/11 13:40:53;;;;;;;6.70;4.40;;;22.80;50.80;;;;;;5008225;28;20518;-83
2021/05/11 13:43:27;;;;;;;5.43;4.00;;;22.80;50.90;;;;;;5011637;28;20407;-84
2021/05/11 13:45:53;;;;;;;7.53;4.43;;;22.80;50.70;;;;;;5013380;28;20230;-83
2021/05/11 13:48:30;;;;;;;7.87;4.43;;;22.80;50.80;;;;;;5014559;28;20419;-83
2021/05/11 13:51:00;;;;;;;5.77;3.70;;;22.80;50.70;;;;;;4995936;28;20439;-84
2021/05/11 13:53:29;;;;;;;5.03;4.00;;;22.80;50.70;;;;;;5010474;28;20461;-84
2021/05/11 13:56:14;;;;;;;8.73;4.40;;;22.80;50.80;;;;;;5007642;28;20423;-84
2021/05/11 14:04:20;;;;;;;5.17;3.77;;;22.80;50.90;;;;;;5025988;28;20402;-84
2021/05/11 14:06:53;;;;;;;4.23;3.23;;;22.70;50.80;;;;;;5011488;28;20411;-84
2021/05/11 14:09:21;;;;;;;4.53;3.50;;;22.80;50.70;;;;;;4992527;28;20415;-84
2021/05/11 14:11:47;;;;;;;5.30;3.30;;;22.80;50.80;;;;;;5025484;28;20423;-84
2021/05/11 14:14:14;;;;;;;4.80;3.23;;;22.80;50.80;;;;;;5007749;28;20411;-85
2021/05/11 14:16:42;;;;;;;5.17;2.70;;;22.80;50.80;;;;;;5008082;28;20315;-85
2021/05/11 14:19:12;;;;;;;4.90;3.47;;;22.90;50.90;;;;;;5010420;28;20427;-83
2021/05/11 14:21:38;;;;;;;4.53;3.03;;;22.80;50.80;;;;;;5028431;28;20418;-84
2021/05/11 14:24:08;;;;;;;7.80;3.20;;;22.80;50.90;;;;;;5011503;28;20920;-83
2021/05/11 14:26:36;;;;;;;5.20;3.50;;;22.80;50.90;;;;;;5028583;28;20502;-83
2021/05/11 14:29:03;;;;;;;3.77;2.77;;;22.80;51.00;;;;;;5028966;28;20419;-84
2021/05/11 14:31:32;;;;;;;5.63;3.40;;;22.80;50.90;;;;;;5011244;28;20757;-82
2021/05/11 14:33:58;;;;;;;3.60;2.93;;;22.80;51.00;;;;;;5028153;28;20407;-83
2021/05/11 14:36:26;;;;;;;3.30;2.90;;;22.80;51.00;;;;;;5011000;28;20469;-83
2021/05/11 14:38:54;;;;;;;3.70;3.30;;;22.80;51.00;;;;;;5010022;28;20202;-83
2021/05/11 14:41:20;;;;;;;3.90;3.13;;;22.80;51.10;;;;;;5011166;28;20451;-84
2021/05/11 14:43:46;;;;;;;4.13;3.20;;;22.80;51.10;;;;;;4994411;28;20428;-83
2021/05/11 14:46:12;;;;;;;3.47;2.27;;;22.80;51.50;;;;;;5010976;28;20418;-83
2021/05/11 14:48:38;;;;;;;6.57;2.77;;;22.80;50.90;;;;;;5028082;28;20431;-83
2021/05/11 14:51:05;;;;;;;3.90;3.10;;;22.80;50.90;;;;;;5010769;28;20910;-83
2021/05/11 14:53:32;;;;;;;2.77;2.43;;;22.80;51.00;;;;;;5011369;28;20423;-84
2021/05/11 14:55:58;;;;;;;2.53;2.33;;;22.80;51.00;;;;;;5012003;28;20431;-84
2021/05/11 14:58:24;;;;;;;5.30;2.80;;;22.80;51.00;;;;;;5028429;28;20447;-84
2021/05/11 15:00:52;;;;;;;3.50;2.47;;;22.80;51.00;;;;;;5012293;28;20417;-84
2021/05/11 15:03:18;;;;;;;3.50;2.80;;;22.80;51.00;;;;;;4998098;28;20434;-84
2021/05/11 15:05:44;;;;;;;3.33;2.60;;;22.80;50.90;;;;;;5011559;28;20471;-83
2021/05/11 15:08:13;;;;;;;2.77;2.30;;;22.80;51.00;;;;;;5024534;28;20187;-83
2021/05/11 15:10:54;;;;;;;3.00;2.20;;;22.80;51.00;;;;;;5033542;28;20500;-83
2021/05/11 15:13:20;;;;;;;3.00;2.70;;;22.80;51.00;;;;;;5047788;28;20420;-84
2021/05/11 15:15:51;;;;;;;3.47;2.37;;;22.80;51.00;;;;;;5024941;28;20483;-83
2021/05/11 15:18:18;;;;;;;3.20;2.50;;;22.80;51.10;;;;;;5029004;28;20462;-83
2021/05/11 15:20:47;;;;;;;4.10;2.67;;;22.80;51.10;;;;;;5026979;28;20407;-83
2021/05/11 15:23:16;;;;;;;3.13;2.53;;;22.80;51.10;;;;;;5026914;28;20400;-83
2021/05/11 15:25:42;;;;;;;2.67;2.47;;;22.80;51.70;;;;;;5035050;28;20473;-83
2021/05/11 15:28:11;;;;;;;2.70;2.40;;;22.80;51.10;;;;;;5027312;28;20715;-84
2021/05/11 15:30:39;;;;;;;2.60;2.27;;;22.80;51.10;;;;;;5045779;28;20786;-84
2021/05/11 15:33:09;;;;;;;3.37;2.43;;;22.80;51.10;;;;;;5015935;28;20466;-84
2021/05/11 15:35:39;;;;;;;3.33;2.20;;;22.80;51.20;;;;;;5033173;28;20434;-85
2021/05/11 15:38:07;;;;;;;3.73;2.60;;;22.80;51.20;;;;;;5049977;28;20468;-83
2021/05/11 15:40:38;;;;;;;3.77;2.40;;;22.80;51.20;;;;;;5033484;28;20406;-82
2021/05/11 15:43:10;;;;;;;3.53;2.63;;;22.80;51.20;;;;;;5051213;28;20414;-83
2021/05/11 15:45:40;;;;;;;3.03;2.30;;;22.80;51.20;;;;;;5050065;28;20416;-84
2021/05/11 15:48:14;;;;;;;4.20;2.17;;;22.80;51.10;;;;;;5051432;28;20395;-84
2021/05/11 15:50:41;;;;;;;2.83;2.20;;;22.80;51.10;;;;;;5035897;28;20410;-84
2021/05/11 15:53:10;;;;;;;3.67;2.40;;;22.70;51.00;;;;;;5033204;28;20488;-83
2021/05/11 15:55:49;;;;;;;2.40;2.10;;;22.70;51.10;;;;;;5054034;28;20406;-83
2021/05/11 15:58:22;;;;;;;2.53;2.30;;;22.70;51.10;;;;;;5040328;28;20449;-83
2021/05/11 16:00:49;;;;;;;3.60;2.73;;;22.80;51.20;;;;;;5040944;28;20478;-83
2021/05/11 16:03:18;;;;;;;2.50;1.80;;;22.70;51.10;;;;;;5054823;28;20414;-83
2021/05/11 16:05:49;;;;;;;2.30;2.10;;;22.70;51.10;;;;;;5035804;28;20586;-83
2021/05/11 16:08:20;;;;;;;3.23;2.20;;;22.70;51.10;;;;;;5054981;28;20410;-84
2021/05/11 16:10:52;;;;;;;3.10;1.90;;;22.70;51.10;;;;;;5039028;28;20414;-82
2021/05/11 16:13:40;;;;;;;;;;;;;;;;;;;;;
2021/05/11 16:19:29;;;;;;;;;;;;;;;;;;;;;
2021/05/11 16:22:01;;;;;;;4.57;2.10;;;22.70;51.20;;;;;;4958179;29;20439;-83
2021/05/11 16:24:36;;;;;;;3.67;1.90;;;22.70;51.10;;;;;;4942181;29;20433;-83
2021/05/11 16:33:13;;;;;;;3.00;2.23;;;22.70;51.20;;;;;;4931798;28;20427;-84
2021/05/11 16:35:39;;;;;;;3.10;2.03;;;22.60;51.20;;;;;;4913544;29;20765;-84
2021/05/11 16:38:12;;;;;;;3.63;2.10;;;22.70;51.20;;;;;;4913117;29;20493;-84
2021/05/11 16:40:48;;;;;;;;;;;;;;;;;;;;;
2021/05/11 16:43:16;;;;;;;2.70;2.20;;;22.70;51.20;;;;;;4915425;29;20520;-84
2021/05/11 16:45:53;;;;;;;3.27;2.30;;;22.70;51.20;;;;;;4913980;29;20459;-84
2021/05/11 16:48:20;;;;;;;2.63;2.00;;;22.70;51.20;;;;;;4913951;29;20427;-84
2021/05/11 16:50:46;;;;;;;3.07;1.90;;;22.70;51.20;;;;;;4975520;28;20524;-84
2021/05/11 16:53:16;;;;;;;3.20;2.53;;;22.70;51.20;;;;;;4989407;28;20452;-84
2021/05/11 16:55:53;;;;;;;1.90;1.70;;;22.70;51.20;;;;;;4990549;28;20279;-84
2021/05/11 16:58:20;;;;;;;2.13;1.93;;;22.70;51.20;;;;;;5006462;28;20483;-84
2021/05/11 17:00:49;;;;;;;2.30;1.83;;;22.70;51.20;;;;;;4989680;28;20459;-84
2021/05/11 17:03:15;;;;;;;2.33;2.13;;;22.70;51.10;;;;;;4987899;28;20415;-83
2021/05/11 17:05:42;;;;;;;2.80;2.00;;;22.70;51.10;;;;;;5004529;28;20459;-84
2021/05/11 17:08:11;;;;;;;2.43;2.23;;;22.70;51.10;;;;;;5027939;28;20410;-84
2021/05/11 17:10:42;;;;;;;2.67;2.40;;;22.70;51.70;;;;;;5027788;28;20430;-84
2021/05/11 17:13:09;;;;;;;2.67;2.20;;;22.70;51.10;;;;;;5027791;28;20892;-84
2021/05/11 17:15:36;;;;;;;2.30;2.00;;;22.70;51.10;;;;;;5031656;28;20442;-85
2021/05/11 17:18:05;;;;;;;2.43;2.23;;;22.70;51.10;;;;;;5047452;28;20481;-84
2021/05/11 17:20:32;;;;;;;2.83;1.83;;;22.70;51.10;;;;;;5050694;28;20402;-84
2021/05/11 17:23:01;;;;;;;2.63;2.10;;;22.70;51.10;;;;;;5033175;28;20419;-84
2021/05/11 17:25:30;;;;;;;2.40;2.13;;;22.70;51.10;;;;;;5047762;28;20437;-84
2021/05/11 17:27:59;;;;;;;2.40;2.20;;;22.70;51.10;;;;;;5033255;28;20410;-84
2021/05/11 17:30:33;;;;;;;2.83;2.37;;;22.70;51.10;;;;;;5029769;28;20414;-84
2021/05/11 17:33:00;;;;;;;2.13;1.90;;;22.70;51.20;;;;;;5029098;28;20457;-85
2021/05/11 17:35:26;;;;;;;3.80;2.20;;;22.70;51.20;;;;;;5045299;28;20448;-84
2021/05/11 17:37:53;;;;;;;2.30;2.10;;;22.70;51.20;;;;;;5026940;28;20469;-84
2021/05/11 17:40:22;;;;;;;3.30;2.23;;;22.70;51.20;;;;;;5028079;28;20172;-85
2021/05/11 17:42:49;;;;;;;3.27;2.40;;;22.60;51.10;;;;;;5029199;28;20449;-84
2021/05/11 17:45:19;;;;;;;2.57;2.20;;;22.70;51.20;;;;;;5027496;28;20465;-84
2021/05/11 17:47:51;;;;;;;4.63;2.50;;;22.70;51.10;;;;;;5046057;28;20406;-85
2021/05/11 17:50:19;;;;;;;2.70;2.50;;;22.70;51.20;;;;;;5045468;28;20425;-84
2021/05/11 17:52:45;;;;;;;3.30;2.43;;;22.70;51.20;;;;;;5029021;28;20425;-86
2021/05/11 17:55:11;;;;;;;2.73;2.47;;;22.70;51.20;;;;;;5046803;28;20411;-85
2021/05/11 17:57:37;;;;;;;2.20;2.00;;;22.60;51.20;;;;;;5028477;28;20191;-84
2021/05/11 18:00:04;;;;;;;2.43;2.23;;;22.60;51.20;;;;;;5045490;28;20437;-84
2021/05/11 18:02:30;;;;;;;3.27;2.30;;;22.60;51.20;;;;;;5044883;28;20175;-83
2021/05/11 18:04:56;;;;;;;3.37;2.30;;;22.60;51.20;;;;;;5018924;28;20453;-83
2021/05/11 18:07:22;;;;;;;2.60;2.27;;;22.60;51.20;;;;;;5027334;28;20454;-83